createdAt,value
2023-01-30T05:47:36.151Z,9.63
2023-01-30T05:50:04.147Z,9.40
2023-01-30T05:52:32.693Z,9.60
2023-01-30T05:55:00.854Z,10.30
2023-01-30T05:57:28.796Z,9.75
2023-01-30T05:59:56.658Z,9.05
2023-01-30T06:02:24.633Z,9.07
2023-01-30T06:04:53.881Z,8.20
2023-01-30T06:07:21.813Z,7.75
2023-01-30T06:09:49.754Z,7.68
2023-01-30T06:12:17.717Z,7.95
2023-01-30T06:14:45.613Z,7.32
2023-01-30T06:17:13.588Z,6.55
2023-01-30T06:19:41.565Z,6.85
2023-01-30T06:22:10.789Z,7.22
2023-01-30T06:24:38.734Z,6.57
2023-01-30T06:27:06.650Z,6.13
2023-01-30T06:29:34.616Z,6.25
2023-01-30T06:32:02.590Z,7.43
2023-01-30T06:34:30.457Z,7.00
2023-01-30T06:36:58.426Z,6.40
2023-01-30T06:39:27.822Z,5.60
2023-01-30T06:41:55.767Z,6.00
2023-01-30T06:44:23.653Z,5.85
2023-01-30T06:46:51.590Z,5.07
2023-01-30T06:49:19.537Z,4.90
2023-01-30T06:51:47.464Z,4.47
2023-01-30T06:54:15.452Z,4.28
2023-01-30T06:56:44.766Z,4.50
2023-01-30T06:59:12.683Z,4.50
2023-01-30T07:01:40.628Z,5.50
2023-01-30T07:04:08.665Z,4.28
2023-01-30T07:06:36.562Z,3.97
2023-01-30T07:09:04.672Z,4.22
2023-01-30T07:11:32.660Z,3.80
2023-01-30T07:14:01.896Z,4.63
2023-01-30T07:16:30.749Z,4.00
2023-01-30T07:18:59.012Z,4.07
2023-01-30T07:21:27.548Z,3.90
2023-01-30T07:23:55.729Z,3.78
2023-01-30T07:26:23.846Z,4.28
2023-01-30T07:28:51.898Z,4.13
2023-01-30T07:31:21.287Z,4.10
2023-01-30T07:33:49.284Z,4.05
2023-01-30T07:36:17.223Z,4.20
2023-01-30T07:38:45.342Z,3.70
2023-01-30T07:41:13.342Z,3.83
2023-01-30T07:43:41.354Z,4.03
2023-01-30T15:02:44.261Z,5.70
2023-01-30T15:05:16.068Z,6.35
2023-01-30T15:07:48.149Z,5.30
2023-01-30T15:10:28.602Z,5.03
2023-01-30T15:13:33.904Z,5.13
2023-01-30T15:16:15.265Z,5.35
2023-01-30T15:19:03.918Z,6.20
2023-01-30T15:21:51.853Z,6.40
2023-01-30T15:24:50.422Z,5.75
2023-01-30T15:27:27.948Z,7.15
2023-01-30T15:30:03.622Z,5.25
2023-01-30T15:32:33.724Z,5.53
2023-01-30T15:35:13.030Z,6.28
2023-01-30T15:37:47.915Z,6.00
2023-01-30T15:40:25.341Z,5.03
2023-01-30T15:42:58.852Z,5.43
2023-01-30T15:45:35.826Z,4.45
2023-01-30T15:48:30.049Z,5.55
2023-01-30T15:51:01.245Z,4.35
2023-01-30T15:53:32.506Z,5.65
2023-01-30T15:56:02.869Z,4.95
2023-01-30T15:58:32.879Z,5.35
2023-01-30T16:01:02.486Z,5.70
2023-01-30T16:03:36.587Z,5.07
2023-01-30T16:06:06.329Z,4.50
2023-01-30T16:08:36.070Z,4.55
2023-01-30T16:11:04.678Z,3.97
2023-01-30T16:13:33.314Z,4.82
2023-01-30T16:16:07.311Z,4.50
2023-01-30T16:18:39.878Z,4.20
2023-01-30T16:21:16.668Z,5.03
2023-01-30T16:23:55.120Z,6.35
2023-01-30T16:26:23.660Z,5.07
2023-01-30T16:28:59.539Z,4.93
2023-01-30T16:31:33.618Z,4.78
2023-01-30T16:34:02.271Z,4.65
2023-01-30T16:36:35.140Z,4.72
2023-01-30T16:39:03.383Z,4.15
2023-01-30T16:41:33.842Z,4.15
2023-01-30T16:44:10.156Z,4.50
2023-01-30T16:47:06.207Z,4.05
2023-01-30T16:49:43.550Z,4.10
2023-01-30T16:52:24.869Z,4.40
2023-01-30T16:54:55.715Z,4.00
2023-01-30T16:57:33.216Z,4.30
2023-01-30T17:00:01.708Z,4.30
2023-01-30T17:02:35.316Z,4.28
2023-01-30T17:05:20.798Z,4.78
2023-01-30T17:07:51.857Z,4.22
2023-01-30T17:10:54.517Z,4.28
2023-01-30T17:13:34.575Z,4.40
2023-01-30T17:16:26.806Z,4.43
2023-01-30T17:18:56.576Z,4.70
2023-01-30T17:21:27.069Z,3.92
2023-01-30T17:23:59.264Z,4.53
2023-01-30T17:26:27.584Z,3.95
2023-01-30T17:28:55.607Z,5.03
2023-01-30T17:31:23.729Z,5.00
2023-01-30T17:33:51.849Z,4.68
2023-01-30T17:36:24.164Z,4.40
2023-01-30T17:38:52.450Z,4.70
2023-01-30T17:41:23.705Z,4.68
2023-01-30T17:43:51.742Z,5.85
2023-01-30T17:46:21.943Z,4.78
2023-01-30T17:48:50.925Z,5.30
2023-01-30T17:51:18.841Z,6.60
2023-01-30T17:53:46.861Z,7.13
2023-01-30T17:56:19.651Z,11.50
2023-01-30T17:58:50.777Z,7.95
2023-01-30T18:01:19.127Z,8.45
2023-01-30T18:03:47.141Z,5.90
2023-01-30T18:06:16.070Z,8.38
2023-01-30T18:08:44.033Z,7.13
2023-01-30T18:11:14.827Z,5.93
2023-01-30T18:13:43.519Z,5.72
2023-01-30T18:16:17.965Z,6.50
2023-01-30T18:18:45.900Z,6.85
2023-01-30T18:21:14.093Z,6.60
2023-01-30T18:23:42.021Z,7.82
2023-01-30T18:26:11.796Z,6.88
2023-01-30T18:28:39.993Z,7.78
2023-01-30T18:31:08.040Z,5.97
2023-01-30T18:33:37.494Z,7.00
2023-01-30T18:36:07.079Z,9.50
2023-01-30T18:38:35.359Z,8.32
2023-01-30T18:41:08.328Z,8.25
2023-01-30T18:43:36.470Z,7.40
2023-01-30T18:46:05.928Z,8.50
2023-01-30T18:48:34.989Z,8.80
2023-01-30T18:51:09.628Z,7.43
2023-01-30T18:53:37.563Z,7.60
2023-01-30T18:56:07.830Z,7.57
2023-01-30T18:58:36.300Z,7.50
2023-01-30T19:01:10.889Z,7.10
2023-01-30T19:03:39.462Z,7.05
2023-01-30T19:06:11.675Z,6.28
2023-01-30T19:08:39.796Z,7.72
2023-01-30T19:11:23.045Z,6.93
2023-01-30T19:13:51.013Z,6.90
2023-01-30T19:16:19.485Z,7.38
2023-01-30T19:18:47.749Z,7.63
2023-01-30T19:21:17.707Z,7.35
2023-01-30T19:23:46.141Z,7.65
2023-01-30T19:26:14.213Z,7.53
2023-01-30T19:28:44.540Z,7.25
2023-01-30T19:31:14.734Z,7.38
2023-01-30T19:33:43.294Z,7.32
2023-01-30T19:36:11.611Z,7.50
2023-01-30T19:38:41.332Z,7.50
2023-01-30T19:41:12.421Z,7.28
2023-01-30T19:43:41.247Z,7.47
2023-01-30T19:46:10.861Z,7.85
2023-01-30T19:48:43.004Z,7.88
2023-01-30T19:51:13.606Z,7.93
2023-01-30T19:53:44.772Z,7.65
2023-01-30T19:56:14.559Z,8.30
2023-01-30T19:58:43.534Z,7.82
2023-01-30T20:01:13.483Z,7.28
2023-01-30T20:03:42.542Z,7.55
2023-01-30T20:06:13.221Z,8.30
2023-01-30T20:08:43.427Z,8.63
2023-01-30T20:11:14.917Z,8.48
2023-01-30T20:13:44.280Z,7.85
2023-01-30T20:16:15.043Z,8.07
2023-01-30T20:18:44.555Z,7.57
2023-01-30T20:21:14.506Z,7.88
2023-01-30T20:23:44.739Z,7.57
2023-01-30T20:26:14.579Z,7.60
2023-01-30T20:28:42.983Z,7.43
2023-01-30T20:31:13.045Z,6.95
2023-01-30T20:33:42.165Z,7.88
2023-01-30T20:36:12.353Z,7.22
2023-01-30T20:38:44.120Z,7.22
2023-01-30T20:41:15.880Z,7.00
2023-01-30T20:43:45.930Z,7.20
2023-01-30T20:46:15.647Z,7.22
2023-01-30T20:48:44.235Z,6.72
2023-01-30T20:51:14.619Z,7.95
2023-01-30T20:53:48.333Z,8.43
2023-01-30T20:56:17.907Z,11.32
2023-01-30T20:58:45.799Z,14.30
